createdAt,value
2023-03-19T00:00:45.558Z,11.97
2023-03-19T00:05:55.234Z,12.17
2023-03-19T00:11:00.536Z,11.80
2023-03-19T00:16:08.886Z,13.13
2023-03-19T00:21:16.644Z,11.97
2023-03-19T00:26:22.941Z,11.90
2023-03-19T00:31:33.249Z,12.27
2023-03-19T00:36:40.669Z,12.87
2023-03-19T00:41:50.557Z,11.83
2023-03-19T00:46:59.371Z,12.93
2023-03-19T00:52:06.557Z,12.63
2023-03-19T00:57:17.023Z,12.47
2023-03-19T01:02:25.084Z,12.87
2023-03-19T01:07:30.026Z,12.27
2023-03-19T01:12:40.450Z,13.17
2023-03-19T01:17:48.576Z,13.43
2023-03-19T01:22:54.282Z,13.23
2023-03-19T01:27:59.299Z,12.40
2023-03-19T01:33:14.740Z,13.23
2023-03-19T01:38:40.583Z,11.97
2023-03-19T01:43:51.371Z,13.67
2023-03-19T01:49:16.725Z,12.73
2023-03-19T01:54:31.347Z,12.80
2023-03-19T01:59:51.926Z,13.40
2023-03-19T02:05:26.052Z,13.13
2023-03-19T02:10:36.332Z,12.30
2023-03-19T02:15:42.190Z,12.50
2023-03-19T02:20:56.843Z,12.27
2023-03-19T02:26:12.246Z,13.07
2023-03-19T02:31:20.832Z,12.67
2023-03-19T02:36:31.634Z,12.20
2023-03-19T02:41:44.654Z,11.97
2023-03-19T02:46:53.160Z,12.33
2023-03-19T02:52:00.243Z,11.77
2023-03-19T02:57:08.644Z,12.30
2023-03-19T03:02:14.244Z,13.03
2023-03-19T03:07:20.126Z,12.43
2023-03-19T03:12:27.910Z,12.37
2023-03-19T03:17:32.966Z,12.37
2023-03-19T03:22:38.209Z,11.10
2023-03-19T03:27:45.910Z,11.63
2023-03-19T03:32:52.066Z,11.77
2023-03-19T03:37:58.139Z,11.50
2023-03-19T03:43:06.927Z,11.47
2023-03-19T03:48:13.851Z,11.83
2023-03-19T03:53:20.133Z,11.00
2023-03-19T03:58:28.284Z,11.60
2023-03-19T04:03:33.369Z,11.87
2023-03-19T04:08:38.585Z,11.30
2023-03-19T04:13:47.693Z,11.63
2023-03-19T04:18:55.423Z,11.73
2023-03-19T04:24:00.844Z,11.40
2023-03-19T04:29:12.101Z,11.77
2023-03-19T04:34:18.379Z,11.27
2023-03-19T04:39:23.443Z,10.87
2023-03-19T04:44:32.746Z,10.67
2023-03-19T04:49:39.951Z,12.27
2023-03-19T04:54:45.004Z,11.27
2023-03-19T04:59:55.742Z,11.23
2023-03-19T05:05:01.895Z,11.33
2023-03-19T05:10:09.273Z,10.47
2023-03-19T05:15:18.181Z,11.10
2023-03-19T05:20:32.593Z,10.87
2023-03-19T05:25:44.127Z,11.00
2023-03-19T05:30:57.336Z,10.03
2023-03-19T05:36:09.374Z,10.33
2023-03-19T05:41:32.263Z,10.47
2023-03-19T05:46:46.752Z,10.07
2023-03-19T05:51:52.827Z,10.33
2023-03-19T05:56:58.216Z,11.17
2023-03-19T06:02:36.440Z,11.83
2023-03-19T06:07:57.075Z,11.10
2023-03-19T06:13:34.683Z,11.77
2023-03-19T06:18:48.185Z,10.93
2023-03-19T06:23:56.692Z,10.63
2023-03-19T06:29:08.317Z,10.43
2023-03-19T06:34:16.744Z,10.43
2023-03-19T06:39:23.844Z,10.83
2023-03-19T06:44:32.279Z,10.13
2023-03-19T06:49:42.918Z,11.50
2023-03-19T06:54:49.250Z,10.27
2023-03-19T06:59:55.158Z,10.63
2023-03-19T07:05:02.738Z,10.50
2023-03-19T07:10:08.903Z,9.70
2023-03-19T07:15:17.699Z,10.80
2023-03-19T07:20:25.406Z,9.87
2023-03-19T07:25:32.493Z,9.87
2023-03-19T07:30:41.160Z,10.23
2023-03-19T07:35:51.521Z,10.23
2023-03-19T07:41:02.287Z,9.70
2023-03-19T07:46:08.187Z,10.03
2023-03-19T07:51:19.154Z,10.17
2023-03-19T07:56:24.497Z,10.30
2023-03-19T08:01:29.995Z,9.27
2023-03-19T08:06:40.199Z,9.53
2023-03-19T08:11:45.611Z,9.97
2023-03-19T08:16:50.889Z,9.50
2023-03-19T08:22:00.159Z,9.83
2023-03-19T08:27:05.391Z,9.80
2023-03-19T08:32:13.395Z,9.57
2023-03-19T08:37:23.269Z,9.43
2023-03-19T08:42:29.080Z,10.17
2023-03-19T08:47:34.410Z,8.70
2023-03-19T08:52:42.162Z,9.23
2023-03-19T08:57:47.215Z,9.73
2023-03-19T09:02:52.469Z,10.20
2023-03-19T09:08:02.488Z,9.77
2023-03-19T09:13:09.586Z,9.17
2023-03-19T09:18:15.786Z,10.13
2023-03-19T09:23:25.404Z,9.27
2023-03-19T09:28:31.249Z,10.87
2023-03-19T09:33:36.743Z,10.00
2023-03-19T09:38:46.665Z,10.37
2023-03-19T09:44:05.068Z,10.30
2023-03-19T09:49:19.675Z,9.87
2023-03-19T09:54:37.141Z,9.17
2023-03-19T09:59:42.776Z,9.67
2023-03-19T10:05:00.824Z,9.30
2023-03-19T10:10:22.147Z,9.77
2023-03-19T10:15:35.224Z,9.67
2023-03-19T10:20:48.879Z,9.53
2023-03-19T10:26:00.019Z,9.47
2023-03-19T10:31:26.008Z,10.03
2023-03-19T10:36:39.122Z,10.50
2023-03-19T10:42:02.506Z,9.50
2023-03-19T10:47:20.119Z,8.43
2023-03-19T10:52:32.556Z,10.00
2023-03-19T10:57:47.183Z,8.83
2023-03-19T11:02:54.433Z,10.00
2023-03-19T11:08:01.992Z,9.90
2023-03-19T11:13:34.035Z,9.90
2023-03-19T11:18:42.558Z,9.30
2023-03-19T11:23:54.601Z,10.70
2023-03-19T11:29:08.258Z,10.43
2023-03-19T11:34:30.627Z,9.33
2023-03-19T11:39:46.046Z,9.40
2023-03-19T11:45:07.268Z,9.47
2023-03-19T11:50:29.750Z,9.80
2023-03-19T11:55:42.653Z,9.03
2023-03-19T12:00:55.168Z,8.97
2023-03-19T12:06:06.274Z,8.60
2023-03-19T12:11:28.025Z,9.77
2023-03-19T12:16:48.314Z,9.97
2023-03-19T12:22:03.419Z,8.73
2023-03-19T12:27:22.964Z,10.07
2023-03-19T12:32:56.064Z,9.40
2023-03-19T12:38:08.816Z,10.00
2023-03-19T12:43:21.094Z,9.27
2023-03-19T12:48:33.235Z,10.67
2023-03-19T12:53:46.565Z,10.00
2023-03-19T12:59:03.511Z,10.03
2023-03-19T13:04:18.094Z,9.90
2023-03-19T13:09:31.618Z,10.07
2023-03-19T13:14:48.505Z,10.13
2023-03-19T13:19:57.302Z,9.07
2023-03-19T13:25:04.697Z,8.33
2023-03-19T13:30:20.656Z,10.47
2023-03-19T13:35:41.759Z,10.47
2023-03-19T13:40:51.931Z,8.90
2023-03-19T13:46:10.036Z,9.77
2023-03-19T13:51:33.135Z,9.67
2023-03-19T13:57:07.081Z,9.37
2023-03-19T14:02:41.779Z,9.77
2023-03-19T14:07:56.417Z,10.50
2023-03-19T14:13:10.270Z,9.53
2023-03-19T14:18:24.728Z,10.43
2023-03-19T14:23:42.740Z,10.47
2023-03-19T14:28:59.276Z,9.50
2023-03-19T14:34:24.225Z,9.57
2023-03-19T14:39:35.503Z,9.93
2023-03-19T14:45:12.106Z,9.43
2023-03-19T14:50:34.730Z,9.00
2023-03-19T14:55:42.396Z,10.73
2023-03-19T15:00:53.079Z,9.07
2023-03-19T15:06:01.231Z,10.77
2023-03-19T15:11:27.561Z,9.80
2023-03-19T15:16:45.928Z,11.17
2023-03-19T15:21:52.919Z,9.90
2023-03-19T15:27:01.038Z,10.37
2023-03-19T15:32:10.310Z,11.53
2023-03-19T15:37:20.396Z,10.87
2023-03-19T15:42:30.698Z,10.60
2023-03-19T15:47:39.630Z,10.20
2023-03-19T15:52:48.114Z,10.40
2023-03-19T15:57:56.715Z,11.00
2023-03-19T16:03:02.070Z,10.00
2023-03-19T16:08:18.387Z,9.70
2023-03-19T16:13:32.668Z,11.23
2023-03-19T16:18:45.906Z,9.90
2023-03-19T16:23:57.026Z,10.00
2023-03-19T16:29:09.691Z,8.93
2023-03-19T16:34:32.557Z,4.30
2023-03-19T16:39:39.868Z,3.47
2023-03-19T16:44:50.055Z,3.53
2023-03-19T16:49:54.984Z,3.27
2023-03-19T16:55:04.837Z,3.43
2023-03-19T17:00:20.719Z,2.57
2023-03-19T17:05:26.826Z,3.13
2023-03-19T17:10:36.470Z,3.17
2023-03-19T17:15:46.482Z,2.80
2023-03-19T17:20:57.938Z,2.80
2023-03-19T17:26:07.071Z,2.10
2023-03-19T17:31:26.869Z,3.40
2023-03-19T17:36:33.426Z,2.60
2023-03-19T17:41:39.228Z,3.90
2023-03-19T17:46:52.342Z,3.97
2023-03-19T17:51:58.822Z,2.80
2023-03-19T17:57:04.234Z,2.23
2023-03-19T18:02:27.300Z,2.60
2023-03-19T18:07:32.794Z,2.47
2023-03-19T18:12:37.791Z,4.37
2023-03-19T18:17:49.114Z,2.53
2023-03-19T18:22:55.851Z,2.50
2023-03-19T18:28:01.423Z,2.40
2023-03-19T18:33:13.818Z,2.70
2023-03-19T18:38:23.800Z,2.40
2023-03-19T18:43:29.985Z,3.20
2023-03-19T18:48:38.318Z,2.73
2023-03-19T18:53:43.606Z,2.40
2023-03-19T18:58:50.016Z,2.80
2023-03-19T19:04:00.217Z,2.43
2023-03-19T19:09:06.920Z,2.60
2023-03-19T19:14:22.025Z,2.37
2023-03-19T19:19:31.505Z,2.23
2023-03-19T19:24:36.572Z,3.37
2023-03-19T19:29:41.929Z,6.00
2023-03-19T19:34:51.971Z,3.53
2023-03-19T19:39:57.989Z,2.90
2023-03-19T19:45:05.767Z,3.70
2023-03-19T19:50:22.378Z,3.70
2023-03-19T19:55:30.472Z,3.30
2023-03-19T20:00:36.641Z,2.90
2023-03-19T20:05:47.973Z,3.30
2023-03-19T20:10:53.590Z,3.20
2023-03-19T20:16:01.281Z,3.57
2023-03-19T20:21:15.166Z,3.67
2023-03-19T20:26:24.393Z,5.53
2023-03-19T20:31:33.172Z,4.73
2023-03-19T20:36:41.860Z,5.77
2023-03-19T20:41:49.916Z,5.60
2023-03-19T20:46:59.164Z,7.63
2023-03-19T20:52:09.544Z,7.50
2023-03-19T20:57:16.848Z,7.57
2023-03-19T21:02:25.458Z,8.20
2023-03-19T21:07:38.680Z,6.90
2023-03-19T21:12:45.152Z,7.33
2023-03-19T21:17:50.750Z,6.50
2023-03-19T21:23:05.250Z,6.00
2023-03-19T21:28:18.797Z,6.07
2023-03-19T21:33:27.174Z,5.70
2023-03-19T21:38:35.733Z,6.00
2023-03-19T21:43:45.666Z,6.10
2023-03-19T21:48:50.625Z,5.70
2023-03-19T21:53:58.768Z,6.80
2023-03-19T21:59:06.740Z,7.00
2023-03-19T22:04:14.146Z,6.63
2023-03-19T22:09:21.917Z,6.87
2023-03-19T22:14:29.096Z,7.23
2023-03-19T22:19:34.091Z,7.43
2023-03-19T22:24:44.428Z,9.07
2023-03-19T22:29:49.865Z,7.87
2023-03-19T22:34:55.168Z,7.67
2023-03-19T22:40:04.269Z,8.17
2023-03-19T22:45:17.129Z,7.87
2023-03-19T22:50:25.862Z,7.27
2023-03-19T22:55:35.894Z,6.57
2023-03-19T23:00:42.053Z,7.17
2023-03-19T23:05:50.994Z,7.43
2023-03-19T23:10:59.606Z,6.63
2023-03-19T23:16:10.384Z,7.47
2023-03-19T23:21:18.535Z,7.13
2023-03-19T23:26:32.036Z,8.13
2023-03-19T23:31:38.720Z,7.77
2023-03-19T23:36:44.738Z,9.67
2023-03-19T23:41:55.233Z,10.87
2023-03-19T23:47:03.837Z,10.93
2023-03-19T23:52:09.032Z,7.83
2023-03-19T23:57:21.126Z,7.50
